createdAt,value
2023-02-23T00:01:55.637Z,20.08
2023-02-23T00:04:23.989Z,17.63
2023-02-23T00:06:54.733Z,17.48
2023-02-23T00:09:24.951Z,17.93
2023-02-23T00:11:56.224Z,15.95
2023-02-23T00:14:31.415Z,15.75
2023-02-23T00:17:00.266Z,17.17
2023-02-23T00:19:27.567Z,18.08
2023-02-23T00:21:55.132Z,16.73
2023-02-23T00:24:23.432Z,17.42
2023-02-23T00:26:51.818Z,15.55
2023-02-23T00:29:21.098Z,18.85
2023-02-23T00:31:49.667Z,17.48
2023-02-23T00:34:21.412Z,15.03
2023-02-23T00:36:54.596Z,17.73
2023-02-23T00:39:22.746Z,15.75
2023-02-23T00:41:50.476Z,16.85
2023-02-23T00:44:17.622Z,17.15
2023-02-23T00:46:45.617Z,14.60
2023-02-23T00:49:13.661Z,14.10
2023-02-23T00:51:41.777Z,15.10
2023-02-23T00:54:12.471Z,15.80
2023-02-23T00:56:39.982Z,13.48
2023-02-23T00:59:07.576Z,15.23
2023-02-23T01:01:34.708Z,15.35
2023-02-23T01:04:01.845Z,11.85
2023-02-23T01:06:31.046Z,12.13
2023-02-23T01:08:58.296Z,10.35
2023-02-23T01:11:31.459Z,14.20
2023-02-23T01:13:59.411Z,12.85
2023-02-23T01:16:28.267Z,12.85
2023-02-23T01:18:56.302Z,13.70
2023-02-23T01:21:24.896Z,10.88
2023-02-23T01:23:53.536Z,11.57
2023-02-23T01:26:20.958Z,12.85
2023-02-23T01:28:51.872Z,14.73
2023-02-23T01:31:20.147Z,16.17
2023-02-23T01:33:47.746Z,16.20
2023-02-23T01:36:15.166Z,24.37
2023-02-23T01:38:42.396Z,23.48
2023-02-23T01:41:09.654Z,24.50
2023-02-23T01:43:37.388Z,52.78
2023-02-23T01:46:06.363Z,68.03
2023-02-23T01:48:36.562Z,96.73
2023-02-23T01:51:03.914Z,174.77
2023-02-23T01:53:34.429Z,243.63
2023-02-23T01:56:03.165Z,91.47
2023-02-23T01:58:30.752Z,51.03
2023-02-23T02:00:58.691Z,33.23
2023-02-23T02:03:36.662Z,28.27
2023-02-23T02:06:04.792Z,28.08
2023-02-23T02:08:33.637Z,25.50
2023-02-23T02:11:00.927Z,25.60
2023-02-23T02:13:31.336Z,21.00
2023-02-23T02:16:13.667Z,17.25
2023-02-23T02:18:48.271Z,17.58
2023-02-23T02:21:18.636Z,13.90
2023-02-23T02:24:04.498Z,16.95
2023-02-23T02:26:43.305Z,13.50
2023-02-23T02:29:10.468Z,14.73
2023-02-23T02:31:37.862Z,13.55
2023-02-23T02:34:12.174Z,14.15
2023-02-23T02:36:42.837Z,17.52
2023-02-23T02:39:39.280Z,13.97
2023-02-23T02:42:18.488Z,15.68
2023-02-23T02:44:54.958Z,13.25
2023-02-23T02:47:42.344Z,15.95
2023-02-23T02:50:18.107Z,15.68
2023-02-23T02:52:50.956Z,13.07
2023-02-23T02:55:24.086Z,14.40
2023-02-23T02:57:53.523Z,16.48
2023-02-23T03:00:40.772Z,17.30
2023-02-23T03:03:45.601Z,17.35
2023-02-23T03:06:31.213Z,16.43
2023-02-23T03:09:40.032Z,13.77
2023-02-23T03:12:28.667Z,14.18
2023-02-23T03:15:26.751Z,14.13
2023-02-23T03:18:30.716Z,14.57
2023-02-23T03:21:24.328Z,17.43
2023-02-23T03:24:33.879Z,22.20
2023-02-23T03:27:35.086Z,25.40
2023-02-23T03:30:25.107Z,28.50
2023-02-23T03:33:25.581Z,34.28
2023-02-23T03:36:31.532Z,64.07
2023-02-23T03:39:17.214Z,47.90
2023-02-23T03:42:04.168Z,171.20
2023-02-23T03:44:52.084Z,56.65
2023-02-23T03:47:40.334Z,58.47
2023-02-23T03:50:31.174Z,48.77
2023-02-23T03:53:18.971Z,45.80
2023-02-23T03:56:07.162Z,117.07
2023-02-23T03:58:56.275Z,130.43
2023-02-23T04:01:43.191Z,102.93
2023-02-23T04:04:29.725Z,177.17
2023-02-23T04:07:17.336Z,190.35
2023-02-23T04:10:02.986Z,147.93
2023-02-23T04:12:56.065Z,91.13
2023-02-23T04:15:26.025Z,53.20
2023-02-23T04:17:53.970Z,25.67
2023-02-23T04:20:21.229Z,26.98
2023-02-23T04:22:48.396Z,23.98
2023-02-23T04:25:17.472Z,21.92
2023-02-23T04:27:44.879Z,34.80
2023-02-23T04:30:12.279Z,30.07
2023-02-23T04:32:39.424Z,23.80
2023-02-23T04:35:07.040Z,21.45
2023-02-23T04:37:34.491Z,19.80
2023-02-23T04:40:01.620Z,20.95
2023-02-23T04:42:29.098Z,20.50
2023-02-23T04:44:56.345Z,18.45
2023-02-23T04:47:23.843Z,19.13
2023-02-23T04:49:51.332Z,16.50
2023-02-23T04:52:18.642Z,17.88
2023-02-23T04:54:46.517Z,17.50
2023-02-23T04:57:13.925Z,16.45
2023-02-23T04:59:42.874Z,15.55
2023-02-23T05:02:10.316Z,20.60
2023-02-23T05:04:39.317Z,18.25
2023-02-23T05:07:06.682Z,18.73
2023-02-23T05:09:34.187Z,26.00
2023-02-23T05:12:01.921Z,16.90
2023-02-23T05:14:29.844Z,22.33
2023-02-23T05:16:57.053Z,22.20
2023-02-23T05:19:24.720Z,51.90
2023-02-23T05:21:51.798Z,41.42
2023-02-23T05:24:19.563Z,26.52
2023-02-23T05:26:46.685Z,36.75
2023-02-23T05:29:13.896Z,20.95
2023-02-23T05:31:41.076Z,16.90
2023-02-23T05:34:08.350Z,17.70
2023-02-23T05:36:37.101Z,19.55
2023-02-23T05:39:04.589Z,15.88
2023-02-23T05:41:31.677Z,13.65
2023-02-23T05:43:58.859Z,13.73
2023-02-23T05:46:27.120Z,11.15
2023-02-23T05:48:59.357Z,12.70
2023-02-23T05:51:27.284Z,14.15
2023-02-23T05:53:54.596Z,16.50
2023-02-23T05:56:22.227Z,17.97
2023-02-23T05:58:51.005Z,16.67
2023-02-23T06:01:18.772Z,19.50
2023-02-23T06:03:47.742Z,18.67
2023-02-23T06:06:15.425Z,102.95
2023-02-23T06:08:42.877Z,135.93
2023-02-23T06:11:10.408Z,167.18
2023-02-23T06:13:38.708Z,170.48
2023-02-23T06:16:06.337Z,178.10
2023-02-23T06:18:33.803Z,192.27
2023-02-23T06:21:01.917Z,159.00
2023-02-23T06:23:29.897Z,130.38
2023-02-23T06:25:57.300Z,238.38
2023-02-23T06:28:25.878Z,166.70
2023-02-23T06:30:54.192Z,124.50
2023-02-23T06:33:21.959Z,91.37
2023-02-23T06:35:49.307Z,134.65
2023-02-23T06:38:16.609Z,57.97
2023-02-23T06:40:46.239Z,43.33
2023-02-23T06:43:13.500Z,36.88
2023-02-23T06:45:41.228Z,34.27
2023-02-23T06:48:08.867Z,33.45
2023-02-23T06:50:36.123Z,36.00
2023-02-23T06:53:03.364Z,27.35
2023-02-23T06:55:30.612Z,22.00
2023-02-23T06:57:57.867Z,21.97
2023-02-23T07:00:24.947Z,20.77
2023-02-23T07:02:52.145Z,18.92
2023-02-23T07:05:19.301Z,14.90
2023-02-23T07:07:46.964Z,14.38
2023-02-23T07:10:15.183Z,12.00
2023-02-23T07:12:42.375Z,15.18
2023-02-23T07:15:10.526Z,20.08
2023-02-23T07:17:37.665Z,33.80
2023-02-23T07:20:05.164Z,52.92
2023-02-23T07:22:34.380Z,45.27
2023-02-23T07:25:01.651Z,95.75
2023-02-23T07:27:28.838Z,58.90
2023-02-23T07:29:56.196Z,48.22
2023-02-23T07:32:23.592Z,45.50
2023-02-23T07:34:52.804Z,46.83
2023-02-23T07:37:21.814Z,51.22
2023-02-23T07:39:49.143Z,44.88
2023-02-23T07:42:16.216Z,41.80
2023-02-23T07:44:43.445Z,41.30
2023-02-23T07:47:11.403Z,44.80
2023-02-23T07:49:38.905Z,42.13
2023-02-23T07:52:06.111Z,37.20
2023-02-23T07:54:33.966Z,34.00
2023-02-23T07:57:01.043Z,30.48
2023-02-23T07:59:28.422Z,33.10
2023-02-23T08:01:55.669Z,29.13
2023-02-23T08:04:22.867Z,26.02
2023-02-23T08:06:49.972Z,28.00
2023-02-23T08:09:17.228Z,27.92
2023-02-23T08:11:44.603Z,28.30
2023-02-23T08:14:13.173Z,27.17
2023-02-23T08:16:40.555Z,28.90
2023-02-23T08:19:07.941Z,29.45
2023-02-23T08:21:36.050Z,28.17
2023-02-23T08:24:03.638Z,29.23
2023-02-23T08:26:30.937Z,27.77
2023-02-23T08:28:58.617Z,29.92
2023-02-23T08:31:27.992Z,23.80
2023-02-23T08:33:55.164Z,25.95
2023-02-23T08:36:22.777Z,24.73
2023-02-23T08:38:49.981Z,25.02
2023-02-23T08:41:17.828Z,24.70
2023-02-23T08:43:45.300Z,25.55
2023-02-23T08:46:12.955Z,27.20
2023-02-23T08:48:40.865Z,21.93
2023-02-23T08:51:08.476Z,27.85
2023-02-23T08:53:36.177Z,20.98
2023-02-23T08:56:04.915Z,23.55
2023-02-23T08:58:32.190Z,22.08
2023-02-23T09:01:00.512Z,24.47
2023-02-23T09:03:30.543Z,24.17
2023-02-23T09:05:58.639Z,23.77
2023-02-23T09:08:25.858Z,20.70
2023-02-23T09:10:54.126Z,21.52
2023-02-23T09:13:21.325Z,33.63
2023-02-23T09:15:48.518Z,40.47
2023-02-23T09:18:15.760Z,38.97
2023-02-23T09:20:43.475Z,42.47
2023-02-23T09:23:11.536Z,37.22
2023-02-23T09:25:46.386Z,39.87
2023-02-23T09:28:18.819Z,40.17
2023-02-23T09:30:46.776Z,41.97
2023-02-23T09:33:14.382Z,45.83
2023-02-23T09:35:55.000Z,42.38
2023-02-23T09:38:23.612Z,43.70
2023-02-23T09:40:57.460Z,39.83
2023-02-23T09:43:36.690Z,44.25
2023-02-23T09:46:30.186Z,41.55
2023-02-23T09:49:12.026Z,40.60
2023-02-23T09:51:59.962Z,39.57
2023-02-23T09:54:38.540Z,39.80
2023-02-23T09:57:12.653Z,43.97
2023-02-23T09:59:40.038Z,37.38
2023-02-23T10:02:07.308Z,41.60
2023-02-23T10:04:37.787Z,32.87
2023-02-23T10:07:21.124Z,36.63
2023-02-23T10:10:06.479Z,32.50
2023-02-23T10:12:46.634Z,32.28
2023-02-23T10:15:33.873Z,33.90
2023-02-23T10:18:08.166Z,32.10
2023-02-23T10:20:42.584Z,28.92
2023-02-23T10:23:29.660Z,31.23
2023-02-23T10:26:01.104Z,31.30
2023-02-23T10:28:33.332Z,37.63
2023-02-23T10:31:02.805Z,28.73
2023-02-23T10:33:41.822Z,29.25
2023-02-23T10:36:13.867Z,28.00
2023-02-23T10:38:41.401Z,31.02
2023-02-23T10:41:09.466Z,26.50
2023-02-23T10:43:36.628Z,27.30
2023-02-23T10:46:04.784Z,26.50
2023-02-23T10:48:34.313Z,27.15
2023-02-23T10:51:03.332Z,26.30
2023-02-23T10:53:37.818Z,29.50
2023-02-23T10:56:11.107Z,26.57
2023-02-23T10:58:44.276Z,29.48
2023-02-23T11:01:13.403Z,26.67
2023-02-23T11:03:43.230Z,26.50
2023-02-23T11:06:33.783Z,25.98
2023-02-23T11:09:24.813Z,23.60
2023-02-23T11:11:59.279Z,31.45
2023-02-23T11:14:28.923Z,28.70
2023-02-23T11:16:58.172Z,27.33
2023-02-23T11:19:34.101Z,31.63
2023-02-23T11:22:01.690Z,24.50
2023-02-23T11:24:32.900Z,26.00
2023-02-23T11:27:07.162Z,25.20
2023-02-23T11:29:42.024Z,30.42
2023-02-23T11:32:19.551Z,24.95
2023-02-23T11:34:49.709Z,23.07
2023-02-23T11:37:24.092Z,25.40
2023-02-23T11:39:52.442Z,30.27
2023-02-23T11:42:21.053Z,29.33
2023-02-23T11:44:52.797Z,25.13
2023-02-23T11:47:22.963Z,27.27
2023-02-23T11:49:51.044Z,27.85
2023-02-23T11:52:19.902Z,30.42
2023-02-23T11:54:56.327Z,29.17
2023-02-23T11:57:24.602Z,27.98
2023-02-23T11:59:52.612Z,29.97
2023-02-23T12:02:27.434Z,28.17
2023-02-23T12:05:17.596Z,27.75
2023-02-23T12:08:03.539Z,25.02
2023-02-23T12:10:42.570Z,27.30
2023-02-23T12:13:19.851Z,24.67
2023-02-23T12:15:50.424Z,32.28
2023-02-23T12:18:24.307Z,26.23
2023-02-23T12:20:54.742Z,27.17
2023-02-23T12:23:28.920Z,29.40
2023-02-23T12:25:56.441Z,27.57
2023-02-23T12:28:27.684Z,29.90
2023-02-23T12:30:55.182Z,28.02
2023-02-23T12:33:35.729Z,27.25
2023-02-23T12:36:07.460Z,29.50
2023-02-23T12:38:44.530Z,27.13
2023-02-23T12:41:16.644Z,29.42
2023-02-23T12:43:51.838Z,25.33
2023-02-23T12:46:22.506Z,28.85
2023-02-23T12:49:02.770Z,32.60
2023-02-23T12:51:39.591Z,25.53
2023-02-23T12:54:09.533Z,23.50
2023-02-23T12:56:44.568Z,27.38
2023-02-23T12:59:32.075Z,26.42
2023-02-23T13:02:01.793Z,27.02
2023-02-23T13:04:47.833Z,27.23
2023-02-23T13:07:45.233Z,25.60
2023-02-23T13:10:30.870Z,27.08
2023-02-23T13:13:02.537Z,25.40
2023-02-23T13:15:43.112Z,23.55
2023-02-23T13:18:33.733Z,24.50
2023-02-23T13:21:04.230Z,22.40
2023-02-23T13:23:35.080Z,27.48
2023-02-23T13:26:02.250Z,28.17
2023-02-23T13:28:36.945Z,26.02
2023-02-23T13:31:05.966Z,26.67
2023-02-23T13:33:43.928Z,26.48
2023-02-23T13:36:13.355Z,24.38
2023-02-23T13:38:45.592Z,25.80
2023-02-23T13:41:24.780Z,23.48
2023-02-23T13:43:59.679Z,25.87
2023-02-23T13:46:29.733Z,22.15
2023-02-23T13:49:18.763Z,23.17
2023-02-23T13:51:55.303Z,24.02
2023-02-23T13:54:26.754Z,23.23
2023-02-23T13:56:58.901Z,21.77
2023-02-23T13:59:29.745Z,23.85
2023-02-23T14:01:57.306Z,21.30
2023-02-23T14:04:24.585Z,20.42
2023-02-23T14:06:54.217Z,22.27
2023-02-23T14:09:24.157Z,23.73
2023-02-23T14:11:53.973Z,20.73
2023-02-23T14:14:33.544Z,22.33
2023-02-23T14:17:16.095Z,20.50
2023-02-23T14:19:46.114Z,20.70
2023-02-23T14:22:14.784Z,21.87
2023-02-23T14:24:41.971Z,19.20
2023-02-23T14:27:34.102Z,20.20
2023-02-23T14:30:08.760Z,22.48
2023-02-23T14:32:40.234Z,23.02
2023-02-23T14:35:27.657Z,18.30
2023-02-23T14:37:56.924Z,19.70
2023-02-23T14:40:32.124Z,20.63
2023-02-23T14:43:01.251Z,22.80
2023-02-23T14:45:30.995Z,17.38
2023-02-23T14:48:01.926Z,36.93
2023-02-23T14:50:31.857Z,24.42
2023-02-23T14:53:00.820Z,23.02
2023-02-23T14:55:29.696Z,19.63
2023-02-23T14:57:58.423Z,20.92
2023-02-23T15:00:27.235Z,20.80
2023-02-23T15:03:00.426Z,19.20
2023-02-23T15:05:31.677Z,21.65
2023-02-23T15:08:07.075Z,22.35
2023-02-23T15:10:35.833Z,22.40
2023-02-23T15:13:20.053Z,18.77
2023-02-23T15:15:47.721Z,19.75
2023-02-23T15:18:22.012Z,21.55
2023-02-23T15:20:49.849Z,23.10
2023-02-23T15:23:19.396Z,20.77
2023-02-23T15:25:51.405Z,21.20
2023-02-23T15:28:23.998Z,20.23
2023-02-23T15:30:54.489Z,20.15
2023-02-23T15:33:29.081Z,19.40
2023-02-23T15:36:16.584Z,21.55
2023-02-23T15:38:45.250Z,35.83
2023-02-23T15:41:29.016Z,19.67
2023-02-23T15:44:02.092Z,19.90
2023-02-23T15:46:29.829Z,22.48
2023-02-23T15:49:01.594Z,24.92
2023-02-23T15:51:34.461Z,20.60
2023-02-23T15:54:03.416Z,23.73
2023-02-23T15:56:31.116Z,20.83
2023-02-23T15:59:02.502Z,24.02
2023-02-23T16:01:30.902Z,23.38
2023-02-23T16:03:58.312Z,23.80
2023-02-23T16:06:27.343Z,24.35
2023-02-23T16:08:58.862Z,21.50
2023-02-23T16:11:26.911Z,26.00
2023-02-23T16:13:54.478Z,21.00
2023-02-23T16:16:25.848Z,25.10
2023-02-23T16:18:54.378Z,26.23
2023-02-23T16:21:24.842Z,23.85
2023-02-23T16:23:53.746Z,21.02
2023-02-23T16:26:27.401Z,21.95
2023-02-23T16:28:56.805Z,29.23
2023-02-23T16:31:28.302Z,24.30
2023-02-23T16:34:00.417Z,22.92
2023-02-23T16:36:38.143Z,25.73
2023-02-23T16:39:09.893Z,31.52
2023-02-23T16:41:37.338Z,25.75
2023-02-23T16:44:05.666Z,29.60
2023-02-23T16:46:36.060Z,29.45
2023-02-23T16:49:10.570Z,29.77
2023-02-23T16:51:38.161Z,27.52
2023-02-23T16:54:05.467Z,27.02
2023-02-23T16:56:34.790Z,30.60
2023-02-23T16:59:03.863Z,25.27
2023-02-23T17:01:31.514Z,25.45
2023-02-23T17:03:59.532Z,23.42
2023-02-23T17:06:26.895Z,24.38
2023-02-23T17:08:58.128Z,24.43
2023-02-23T17:11:26.430Z,25.77
2023-02-23T17:13:53.632Z,26.00
2023-02-23T17:16:21.497Z,28.30
2023-02-23T17:18:49.311Z,27.13
2023-02-23T17:21:23.290Z,30.70
2023-02-23T17:23:51.433Z,27.90
2023-02-23T17:26:25.391Z,25.08
2023-02-23T17:28:54.091Z,24.25
2023-02-23T17:31:23.552Z,22.27
2023-02-23T17:33:52.969Z,27.40
2023-02-23T17:36:20.221Z,27.52
2023-02-23T17:38:47.446Z,25.98
2023-02-23T17:41:16.833Z,30.67
2023-02-23T17:43:44.257Z,33.03
2023-02-23T17:46:12.815Z,27.10
2023-02-23T17:48:44.928Z,27.30
2023-02-23T17:51:13.256Z,27.45
2023-02-23T17:53:40.848Z,24.45
2023-02-23T17:56:08.674Z,28.17
2023-02-23T17:58:36.213Z,34.43
2023-02-23T18:01:05.177Z,31.13
2023-02-23T18:03:33.828Z,32.25
2023-02-23T18:06:01.916Z,26.58
2023-02-23T18:08:30.479Z,25.58
2023-02-23T18:10:57.940Z,25.83
2023-02-23T18:13:25.580Z,34.60
2023-02-23T18:15:59.677Z,36.47
2023-02-23T18:18:26.989Z,32.05
2023-02-23T18:20:55.463Z,29.25
2023-02-23T18:23:23.587Z,27.80
2023-02-23T18:25:50.723Z,29.63
2023-02-23T18:28:18.401Z,25.08
2023-02-23T18:30:45.722Z,25.90
2023-02-23T18:33:13.733Z,25.25
2023-02-23T18:35:43.265Z,30.20
2023-02-23T18:38:12.073Z,30.57
2023-02-23T18:40:39.609Z,27.65
2023-02-23T18:43:07.194Z,29.92
2023-02-23T18:45:34.649Z,30.65
2023-02-23T18:48:01.836Z,39.33
2023-02-23T18:50:28.957Z,36.93
2023-02-23T18:52:58.364Z,32.33
2023-02-23T18:55:25.534Z,32.00
2023-02-23T18:57:56.024Z,34.03
2023-02-23T19:00:23.354Z,30.77
2023-02-23T19:02:53.460Z,30.95
2023-02-23T19:05:22.088Z,29.37
2023-02-23T19:07:49.594Z,30.90
2023-02-23T19:10:16.943Z,26.02
2023-02-23T19:12:44.305Z,27.55
2023-02-23T19:15:12.507Z,26.20
2023-02-23T19:17:42.283Z,26.07
2023-02-23T19:20:13.814Z,28.05
2023-02-23T19:22:41.769Z,36.80
2023-02-23T19:25:11.880Z,33.00
2023-02-23T19:27:39.307Z,33.38
2023-02-23T19:30:10.286Z,30.60
2023-02-23T19:32:39.865Z,28.00
2023-02-23T19:35:09.353Z,24.30
2023-02-23T19:37:37.007Z,24.45
2023-02-23T19:40:04.626Z,25.27
2023-02-23T19:42:33.083Z,25.17
2023-02-23T19:45:02.466Z,26.83
2023-02-23T19:47:29.695Z,25.67
2023-02-23T19:49:57.309Z,29.10
2023-02-23T19:52:24.994Z,29.20
2023-02-23T19:54:52.113Z,27.93
2023-02-23T19:57:20.972Z,24.20
2023-02-23T19:59:48.256Z,25.60
2023-02-23T20:02:16.136Z,27.42
2023-02-23T20:04:48.035Z,26.90
2023-02-23T20:07:15.490Z,27.97
2023-02-23T20:09:42.646Z,40.63
2023-02-23T20:12:09.940Z,52.15
2023-02-23T20:14:39.522Z,43.50
2023-02-23T20:17:06.769Z,37.72
2023-02-23T20:19:35.263Z,31.57
2023-02-23T20:22:02.978Z,29.67
2023-02-23T20:24:30.269Z,30.80
2023-02-23T20:26:59.477Z,27.83
2023-02-23T20:29:29.056Z,29.23
2023-02-23T20:31:56.496Z,27.37
2023-02-23T20:34:24.705Z,29.00
2023-02-23T20:36:52.205Z,26.27
2023-02-23T20:39:19.722Z,26.45
2023-02-23T20:41:48.206Z,27.23
2023-02-23T20:44:16.240Z,28.37
2023-02-23T20:46:44.977Z,28.80
2023-02-23T20:49:15.686Z,30.60
2023-02-23T20:51:44.136Z,33.75
2023-02-23T20:54:11.435Z,30.25
2023-02-23T20:56:41.933Z,30.37
2023-02-23T20:59:12.116Z,25.10
2023-02-23T21:01:40.497Z,25.80
2023-02-23T21:04:08.042Z,28.38
2023-02-23T21:06:35.306Z,28.65
2023-02-23T21:09:05.466Z,27.20
2023-02-23T21:11:33.076Z,25.02
2023-02-23T21:14:00.507Z,26.88
2023-02-23T21:16:32.555Z,27.92
2023-02-23T21:19:05.760Z,25.05
2023-02-23T21:21:38.621Z,26.03
2023-02-23T21:24:06.041Z,23.13
2023-02-23T21:26:33.161Z,24.00
2023-02-23T21:29:00.307Z,22.65
2023-02-23T21:31:27.775Z,24.27
2023-02-23T21:33:55.103Z,20.63
2023-02-23T21:36:22.313Z,25.05
2023-02-23T21:38:49.645Z,22.90
2023-02-23T21:41:16.860Z,23.77
2023-02-23T21:43:44.855Z,20.17
2023-02-23T21:46:16.129Z,21.57
2023-02-23T21:48:43.909Z,23.75
2023-02-23T21:51:12.398Z,27.10
2023-02-23T21:53:40.064Z,23.23
2023-02-23T21:56:12.011Z,24.80
2023-02-23T21:58:40.374Z,21.90
2023-02-23T22:01:14.478Z,22.88
2023-02-23T22:03:45.242Z,20.52
2023-02-23T22:06:16.087Z,24.10
2023-02-23T22:08:43.555Z,24.35
2023-02-23T22:11:12.205Z,23.52
2023-02-23T22:13:39.433Z,22.83
2023-02-23T22:16:07.405Z,27.05
2023-02-23T22:18:34.731Z,21.95
2023-02-23T22:21:04.217Z,21.17
2023-02-23T22:23:34.787Z,21.07
2023-02-23T22:26:02.453Z,21.98
2023-02-23T22:28:29.709Z,23.73
2023-02-23T22:30:57.134Z,21.20
2023-02-23T22:33:24.374Z,21.25
2023-02-23T22:35:53.107Z,20.87
2023-02-23T22:38:20.396Z,22.55
2023-02-23T22:40:48.209Z,20.33
2023-02-23T22:43:16.609Z,21.10
2023-02-23T22:45:44.353Z,21.90
2023-02-23T22:48:11.556Z,22.93
2023-02-23T22:50:38.823Z,19.92
2023-02-23T22:53:06.307Z,20.90
2023-02-23T22:55:35.391Z,21.20
2023-02-23T22:58:02.527Z,19.63
2023-02-23T23:00:29.928Z,19.83
2023-02-23T23:02:57.065Z,23.30
2023-02-23T23:05:25.933Z,22.17
2023-02-23T23:07:55.684Z,19.13
2023-02-23T23:10:23.963Z,21.80
2023-02-23T23:12:51.158Z,23.83
2023-02-23T23:15:20.222Z,20.55
2023-02-23T23:17:50.416Z,21.73
2023-02-23T23:20:18.906Z,21.23
2023-02-23T23:22:46.078Z,19.73
2023-02-23T23:25:16.266Z,20.93
2023-02-23T23:27:45.129Z,20.33
2023-02-23T23:30:12.714Z,22.77
2023-02-23T23:32:41.252Z,18.40
2023-02-23T23:35:11.506Z,20.42
2023-02-23T23:37:41.861Z,20.63
2023-02-23T23:40:16.642Z,24.30
2023-02-23T23:42:46.299Z,19.63
2023-02-23T23:45:16.449Z,18.75
2023-02-23T23:47:47.070Z,25.25
2023-02-23T23:50:21.786Z,20.52
2023-02-23T23:52:50.720Z,21.70
2023-02-23T23:55:19.614Z,19.05
2023-02-23T23:57:46.725Z,22.63
